Min Zidell — WDJ3750 — position and weather

sailwx.info

Track history (hours):
 
Tides and Currents Weather Stations Pressure Air Temp Water Temp Dewpoint Dewpoint Depression Visibility Wind Speed Wind Dir Waves Ship Positions

Min Zidell

Owner: Harley Marine Services, Inc., seattle, WA. More information available from US FCC via Universal Licensing System and Coast Guard Vessel Documentation Center.

Last reported at 2018-Jul-22 18:00 UTC. Time now 2018-Jul-22 17:58 UTC.
Position N 46°19' W 124°41'.

Length 38 m; draft 4.2 m.

Type: Other ship. MMSI: 367770990.

Date/timePositionNaut miles runAvg speedWind from/ knotsBaromVisibWave heightAir tempDewpointWater temp
2018-Jul-22 18:00N 46°19' W 124°41'4 8.5
2018-Jul-22 17:31N 46°22' W 124°46'4 8.4
2018-Jul-22 17:01N 46°25' W 124°50'4 8.9
2018-Jul-22 16:30N 46°29' W 124°53'4 8.8
2018-Jul-22 16:01N 46°33' W 124°55'9 9.0
2018-Jul-22 15:00N 46°42' W 124°58'4 9.1
2018-Jul-22 14:30N 46°46' W 124°60'4 8.9
2018-Jul-22 14:00N 46°51' W 125°01'4 8.8
2018-Jul-22 13:30N 46°55' W 125°02'4 8.9
2018-Jul-22 13:00N 46°59' W 125°03'4 8.9
2018-Jul-22 12:31N 47°04' W 125°04'6 8.8
2018-Jul-22 11:46N 47°10' W 125°06'2 8.3
2018-Jul-22 11:30N 47°12' W 125°06'4 8.4
2018-Jul-22 11:01N 47°16' W 125°07'4 8.7
2018-Jul-22 10:31N 47°21' W 125°09'7 8.9
2018-Jul-22 09:46N 47°27' W 125°10'4 9.2
2018-Jul-22 09:22N 47°31' W 125°11'13 9.1
2018-Jul-22 07:53N 47°44' W 125°15'6 8.9
2018-Jul-22 07:13N 47°50' W 125°16'4 8.6
2018-Jul-22 06:46N 47°54' W 125°16'2 8.5
2018-Jul-22 06:30N 47°56' W 125°15'4 8.5
2018-Jul-22 06:00N 47°60' W 125°13'11 8.2
2018-Jul-22 04:41N 48°10' W 125°07'6 8.2
2018-Jul-22 03:57N 48°16' W 125°04'4 8.1
2018-Jul-22 03:28N 48°19' W 125°01'4 8.0
2018-Jul-22 03:00N 48°22' W 124°58'5 7.7
2018-Jul-22 02:22N 48°26' W 124°54'3 7.2
2018-Jul-22 02:00N 48°27' W 124°50'4 8.0
2018-Jul-22 01:31N 48°27' W 124°44'4 8.7
2018-Jul-22 01:01N 48°25' W 124°38'4 9.0
2018-Jul-22 00:31N 48°23' W 124°32'4 9.0
2018-Jul-22 00:01N 48°21' W 124°26'5 9.3
2018-Jul-21 23:31N 48°19' W 124°20'29 8.3
2018-Jul-21 20:00N 48°12' W 123°37'29 7.8
2018-Jul-21 16:16N 48°21' W 122°56'2 9.0
2018-Jul-21 16:01N 48°23' W 122°53'5 9.7
2018-Jul-21 15:30N 48°25' W 122°47'510.0
2018-Jul-21 15:00N 48°30' W 122°45'510.9
2018-Jul-21 14:30N 48°35' W 122°46'510.3
2018-Jul-21 14:01N 48°40' W 122°44'510.3
2018-Jul-21 13:30N 48°46' W 122°45'0 0.0
2018-Jul-20 18:14N 48°45' W 122°45'310.7
2018-Jul-20 17:59N 48°43' W 122°44'5 9.5
2018-Jul-20 17:30N 48°38' W 122°44'510.6
2018-Jul-20 17:00N 48°33' W 122°45'5 9.4
2018-Jul-20 16:30N 48°28' W 122°45'4 7.9
2018-Jul-20 16:00N 48°25' W 122°47'4 7.3
2018-Jul-20 15:29N 48°22' W 122°52'42 7.7
2018-Jul-20 10:01N 48°13' W 123°54'0 8.0
2018-Jul-20 09:58N 48°13' W 123°54'3 7.5
2018-Jul-20 09:30N 48°14' W 123°59'4 7.6
2018-Jul-20 09:00N 48°15' W 124°05'4 7.7
2018-Jul-20 08:30N 48°17' W 124°10'4 8.1
2018-Jul-20 08:00N 48°19' W 124°15'4 8.2
2018-Jul-20 07:27N 48°21' W 124°21'4 8.3
2018-Jul-20 06:59N 48°22' W 124°26'4 8.4
2018-Jul-20 06:30N 48°24' W 124°32'4 8.3
2018-Jul-20 06:00N 48°26' W 124°38'4 8.6
2018-Jul-20 05:30N 48°27' W 124°44'5 9.4
2018-Jul-20 05:00N 48°27' W 124°51'87 7.4
2018-Jul-19 17:10N 46°60' W 124°50'2 7.1
2018-Jul-19 16:52N 46°58' W 124°49'3 7.2
2018-Jul-19 16:30N 46°55' W 124°48'3 7.1
2018-Jul-19 16:01N 46°52' W 124°46'5 7.5
2018-Jul-19 15:24N 46°47' W 124°44'4 7.6
2018-Jul-19 14:55N 46°44' W 124°43'7 7.5
2018-Jul-19 14:01N 46°37' W 124°41'4 7.3
2018-Jul-19 13:27N 46°34' W 124°38'3 7.5
2018-Jul-19 13:00N 46°31' W 124°36'4 7.6
2018-Jul-19 12:31N 46°27' W 124°35'4 7.7
2018-Jul-19 12:00N 46°24' W 124°32'4 7.4
2018-Jul-19 11:31N 46°21' W 124°28'4 7.4
2018-Jul-19 11:00N 46°18' W 124°25'4 7.9
2018-Jul-19 10:30N 46°15' W 124°21'5 8.6
2018-Jul-19 09:55N 46°13' W 124°14'3 8.5
2018-Jul-19 09:30N 46°13' W 124°09'5 9.4
2018-Jul-19 09:00N 46°15' W 124°04'611.0
2018-Jul-19 08:31N 46°13' W 123°57'611.4
2018-Jul-19 08:01N 46°12' W 123°49'612.0
2018-Jul-19 07:31N 46°15' W 123°41'611.9
2018-Jul-19 06:59N 46°16' W 123°32'510.0
2018-Jul-19 06:31N 46°14' W 123°26'510.5
2018-Jul-19 06:01N 46°09' W 123°23'611.1
2018-Jul-19 05:30N 46°10' W 123°15'510.3
2018-Jul-19 05:00N 46°11' W 123°08'510.3
2018-Jul-19 04:30N 46°09' W 123°02'5 9.6
2018-Jul-19 04:01N 46°06' W 122°56'5 9.1
2018-Jul-19 03:30N 46°02' W 122°53'510.0
2018-Jul-19 03:01N 45°58' W 122°49'510.4
2018-Jul-19 02:29N 45°52' W 122°47'510.8
2018-Jul-19 02:01N 45°47' W 122°46'611.0
2018-Jul-19 01:31N 45°42' W 122°46'5 9.3
2018-Jul-19 01:01N 45°37' W 122°47'4 7.3
2018-Jul-19 00:30N 45°34' W 122°44'0 0.3
2018-Jul-19 00:00N 45°34' W 122°44'0 0.0
2018-Jul-18 23:30N 45°34' W 122°44'0 0.0
2018-Jul-18 23:00N 45°34' W 122°44'0 0.0
2018-Jul-18 22:30N 45°34' W 122°44'0 0.0
2018-Jul-18 22:01N 45°34' W 122°44'1 2.0
2018-Jul-18 21:22N 45°35' W 122°46'0 0.0
2018-Jul-18 20:58N 45°35' W 122°46'0 0.0
2018-Jul-18 20:25N 45°35' W 122°46'0 0.0
2018-Jul-18 19:58N 45°35' W 122°46'0 0.0
2018-Jul-18 19:28N 45°35' W 122°46'0 0.0
2018-Jul-18 18:59N 45°35' W 122°46'0 0.0
2018-Jul-18 18:21N 45°35' W 122°46'0 0.0
2018-Jul-18 18:00N 45°35' W 122°46'0 0.0
2018-Jul-18 17:30N 45°35' W 122°46'0 0.0
2018-Jul-18 17:01N 45°35' W 122°46'1 2.5
2018-Jul-18 16:30N 45°34' W 122°44'0 0.0
2018-Jul-18 15:51N 45°34' W 122°44'0 0.0
2018-Jul-18 15:27N 45°34' W 122°44'0 0.0
2018-Jul-18 14:57N 45°34' W 122°44'0 0.0
2018-Jul-18 14:30N 45°34' W 122°44'0 0.0
2018-Jul-18 13:30N 45°34' W 122°44'0 0.0
2018-Jul-18 12:54N 45°34' W 122°44'0 0.0
2018-Jul-18 12:15N 45°34' W 122°44'0 0.0
2018-Jul-18 11:57N 45°34' W 122°44'0 0.0
2018-Jul-18 11:27N 45°34' W 122°44'0 0.0
2018-Jul-18 10:27N 45°34' W 122°44'0 0.0
2018-Jul-18 10:00N 45°34' W 122°44'0 0.0
2018-Jul-18 09:27N 45°34' W 122°44'0 0.0
2018-Jul-18 08:54N 45°34' W 122°44'0 0.0
2018-Jul-18 08:30N 45°34' W 122°44'0 0.0
2018-Jul-18 07:48N 45°34' W 122°44'0 0.0
2018-Jul-18 07:27N 45°34' W 122°44'0 0.0
2018-Jul-18 06:59N 45°34' W 122°44'1 1.4
2018-Jul-18 06:31N 45°35' W 122°45'3 6.2
2018-Jul-18 06:00N 45°37' W 122°47'3 6.7
2018-Jul-18 05:31N 45°40' W 122°46'6 8.0
2018-Jul-18 04:48N 45°46' W 122°46'2 8.2
2018-Jul-18 04:31N 45°48' W 122°47'5 8.2
2018-Jul-18 03:54N 45°53' W 122°48'3 8.6
2018-Jul-18 03:31N 45°56' W 122°48'4 8.7
2018-Jul-18 03:00N 46°00' W 122°51'4 8.6
2018-Jul-18 02:31N 46°04' W 122°53'4 8.6
2018-Jul-18 02:01N 46°07' W 122°59'4 8.6
2018-Jul-18 01:31N 46°09' W 123°03'7 7.9
2018-Jul-18 00:40N 46°10' W 123°13'1 8.6
2018-Jul-18 00:30N 46°10' W 123°15'4 8.4
2018-Jul-18 00:00N 46°09' W 123°21'4 8.1
2018-Jul-17 23:30N 46°11' W 123°26'4 8.0
2018-Jul-17 23:00N 46°15' W 123°26'4 7.5
2018-Jul-17 22:30N 46°16' W 123°31'5 8.9
2018-Jul-17 22:00N 46°15' W 123°38'4 8.7
2018-Jul-17 21:30N 46°14' W 123°44'5 9.2
2018-Jul-17 21:00N 46°12' W 123°50'4 8.6
2018-Jul-17 20:31N 46°12' W 123°56'4 8.8
2018-Jul-17 20:00N 46°15' W 124°00'4 7.2
2018-Jul-17 19:30N 46°15' W 124°06'3 7.0
2018-Jul-17 19:01N 46°13' W 124°10'3 6.5
2018-Jul-17 18:31N 46°12' W 124°14'2 4.8
2018-Jul-17 18:01N 46°13' W 124°18'3 5.9
2018-Jul-17 17:30N 46°14' W 124°21'3 6.5
2018-Jul-17 17:00N 46°15' W 124°26'5 6.5
2018-Jul-17 16:16N 46°17' W 124°32'2 6.1
2018-Jul-17 16:01N 46°18' W 124°35'3 5.6
2018-Jul-17 15:30N 46°18' W 124°38'3 5.8
2018-Jul-17 15:00N 46°20' W 124°42'3 5.9
2018-Jul-17 14:31N 46°21' W 124°46'3 6.8
2018-Jul-17 14:00N 46°22' W 124°51'3 5.8
2018-Jul-17 13:31N 46°24' W 124°54'3 6.6
2018-Jul-17 13:00N 46°27' W 124°54'3 6.7
2018-Jul-17 12:31N 46°31' W 124°55'4 6.4
2018-Jul-17 11:50N 46°35' W 124°57'3 6.3
2018-Jul-17 11:23N 46°38' W 124°58'2 6.5
2018-Jul-17 11:00N 46°40' W 124°58'5 6.5
2018-Jul-17 10:16N 46°45' W 124°59'2 6.6
2018-Jul-17 10:01N 46°46' W 124°60'3 6.6
2018-Jul-17 09:30N 46°50' W 125°01'3 6.4
2018-Jul-17 09:00N 46°53' W 125°01'3 6.4
2018-Jul-17 08:31N 46°56' W 125°02'3 6.5
2018-Jul-17 08:00N 46°59' W 125°03'3 6.9
2018-Jul-17 07:30N 47°03' W 125°04'3 6.6
2018-Jul-17 06:59N 47°06' W 125°05'3 6.4
2018-Jul-17 06:30N 47°09' W 125°06'3 6.2
2018-Jul-17 06:00N 47°12' W 125°07'3 6.1
2018-Jul-17 05:26N 47°15' W 125°08'3 6.3
2018-Jul-17 04:59N 47°18' W 125°09'3 6.2
2018-Jul-17 04:30N 47°21' W 125°10'3 5.8
2018-Jul-17 04:00N 47°24' W 125°10'3 5.9
2018-Jul-17 03:30N 47°27' W 125°11'27 6.2
2018-Jul-16 23:13N 47°53' W 125°16'16 7.1
2018-Jul-16 20:56N 48°09' W 125°07'3 6.7
2018-Jul-16 20:26N 48°12' W 125°05'3 6.7
2018-Jul-16 20:00N 48°14' W 125°03'4 7.0
2018-Jul-16 19:30N 48°18' W 125°02'4 7.5
2018-Jul-16 18:58N 48°21' W 124°60'3 7.3
2018-Jul-16 18:30N 48°25' W 124°58'4 7.8
2018-Jul-16 17:59N 48°27' W 124°53'4 8.6
2018-Jul-16 17:30N 48°27' W 124°47'5 9.1
2018-Jul-16 17:00N 48°26' W 124°40'5 9.1
2018-Jul-16 16:30N 48°24' W 124°34'4 8.9
2018-Jul-16 16:00N 48°22' W 124°28'4 8.8
2018-Jul-16 15:30N 48°20' W 124°22'5 8.6
2018-Jul-16 14:58N 48°18' W 124°15'4 8.1
2018-Jul-16 14:29N 48°16' W 124°10'42 7.1
2018-Jul-16 08:35N 48°17' W 123°07'2 8.8
2018-Jul-16 08:23N 48°18' W 123°05'4 8.4
2018-Jul-16 07:55N 48°20' W 123°00'5 8.1
2018-Jul-16 07:20N 48°22' W 122°54'4 9.8
2018-Jul-16 06:58N 48°24' W 122°49'4 9.0
2018-Jul-16 06:30N 48°27' W 122°45'5 9.1
2018-Jul-16 06:00N 48°32' W 122°45'5 9.3
2018-Jul-16 05:30N 48°37' W 122°45'4 8.3
2018-Jul-16 05:00N 48°41' W 122°43'4 7.1
2018-Jul-16 04:28N 48°44' W 122°46'5 0.2
2018-Jul-14 20:41N 48°49' W 122°43'2 7.0
2018-Jul-14 20:28N 48°48' W 122°44'4 8.1
2018-Jul-14 19:55N 48°43' W 122°44'3 7.9
2018-Jul-14 19:30N 48°40' W 122°42'3 6.8
2018-Jul-14 19:00N 48°37' W 122°44'3 5.8
2018-Jul-14 18:30N 48°34' W 122°45'4 7.4
2018-Jul-14 18:00N 48°30' W 122°44'3 5.6
2018-Jul-14 17:30N 48°28' W 122°44'3 6.1
2018-Jul-14 17:00N 48°24' W 122°44'3 6.6
2018-Jul-14 16:30N 48°21' W 122°45'18 9.9
2018-Jul-14 14:41N 48°04' W 122°38'312.6
2018-Jul-14 14:26N 48°01' W 122°37'1111.3
2018-Jul-14 13:30N 47°52' W 122°28'611.1
2018-Jul-14 13:00N 47°47' W 122°26'510.1
2018-Jul-14 12:30N 47°42' W 122°27'4 8.8
2018-Jul-14 12:00N 47°38' W 122°25'4 7.7
2018-Jul-14 11:30N 47°35' W 122°21'0 0.9
2018-Jul-14 11:01N 47°34' W 122°21'0 0.0
2018-Jul-14 10:30N 47°34' W 122°21'0 0.0
2018-Jul-14 09:58N 47°34' W 122°21'0 0.0
2018-Jul-14 09:28N 47°34' W 122°21'0 0.0
2018-Jul-14 08:58N 47°34' W 122°21'0 0.0
2018-Jul-14 08:28N 47°34' W 122°21'0 0.0
2018-Jul-14 07:58N 47°34' W 122°21'0 0.0
2018-Jul-14 07:28N 47°34' W 122°21'0 0.0
2018-Jul-14 06:55N 47°34' W 122°21'0 0.0
2018-Jul-14 06:28N 47°34' W 122°21'0 0.0
2018-Jul-14 05:58N 47°34' W 122°21'0 0.0
2018-Jul-14 05:28N 47°34' W 122°21'0 0.0
2018-Jul-14 04:58N 47°34' W 122°21'0 0.0
2018-Jul-14 04:28N 47°34' W 122°21'0 0.0
2018-Jul-14 03:58N 47°34' W 122°21'0 0.0
2018-Jul-14 03:28N 47°34' W 122°21'0 0.0
2018-Jul-14 02:58N 47°34' W 122°21'0 0.0
2018-Jul-14 02:28N 47°34' W 122°21'0 0.0
2018-Jul-14 01:58N 47°34' W 122°21'0 0.0
2018-Jul-14 01:28N 47°34' W 122°21'0 0.0
2018-Jul-14 00:58N 47°34' W 122°21'0 0.0
2018-Jul-14 00:28N 47°34' W 122°21'0 0.0
2018-Jul-13 23:58N 47°34' W 122°21'0 0.0
2018-Jul-13 23:28N 47°34' W 122°21'0 0.0
2018-Jul-13 22:58N 47°34' W 122°21'0 0.0
2018-Jul-13 22:25N 47°34' W 122°21'0 0.0
2018-Jul-13 21:58N 47°34' W 122°21'0 0.0
2018-Jul-13 20:16N 47°34' W 122°21'0 0.0
2018-Jul-13 19:55N 47°34' W 122°21'0 0.0
2018-Jul-13 19:25N 47°34' W 122°21'0 0.0
2018-Jul-13 18:58N 47°34' W 122°21'0 0.0
2018-Jul-13 18:28N 47°34' W 122°21'0 0.0
2018-Jul-13 17:58N 47°34' W 122°21'0 0.0
2018-Jul-13 17:25N 47°34' W 122°21'0 0.0
2018-Jul-13 16:58N 47°34' W 122°21'0 0.0
2018-Jul-13 16:28N 47°34' W 122°21'0 0.0
2018-Jul-13 15:58N 47°34' W 122°21'0 0.0
2018-Jul-13 15:28N 47°34' W 122°21'0 0.0
2018-Jul-13 14:58N 47°34' W 122°21'0 0.0
2018-Jul-13 14:28N 47°34' W 122°21'0 0.0
2018-Jul-13 13:28N 47°34' W 122°21'0 0.0
2018-Jul-13 12:58N 47°34' W 122°21'0 0.0
2018-Jul-13 12:28N 47°34' W 122°21'0 0.0
2018-Jul-13 11:58N 47°34' W 122°21'0 0.0
2018-Jul-13 11:28N 47°34' W 122°21'0 0.0
2018-Jul-13 10:55N 47°34' W 122°21'0 0.0
2018-Jul-13 10:28N 47°34' W 122°21'0 0.0
2018-Jul-13 09:58N 47°34' W 122°21'0 0.0
2018-Jul-13 09:28N 47°34' W 122°21'0 0.0
2018-Jul-13 08:58N 47°34' W 122°21'0 0.0
2018-Jul-13 08:28N 47°34' W 122°21'0 0.0
2018-Jul-13 07:58N 47°34' W 122°21'0 0.0
2018-Jul-13 07:28N 47°34' W 122°21'0 0.0
2018-Jul-13 06:58N 47°34' W 122°21'0 0.0
2018-Jul-13 06:28N 47°34' W 122°21'0 0.0
2018-Jul-13 05:58N 47°34' W 122°21'0 0.0
2018-Jul-13 05:28N 47°34' W 122°21'0 0.0
2018-Jul-13 04:58N 47°34' W 122°21'0 0.0
2018-Jul-13 04:28N 47°34' W 122°21'0 0.0
2018-Jul-13 03:58N 47°34' W 122°21'0 0.0
2018-Jul-13 03:28N 47°34' W 122°21'0 0.0
2018-Jul-13 02:58N 47°34' W 122°21'0 0.0
2018-Jul-13 02:28N 47°34' W 122°21'0 0.0
2018-Jul-13 01:55N 47°34' W 122°21'0 0.0
2018-Jul-13 01:28N 47°34' W 122°21'0 0.0
2018-Jul-13 00:58N 47°34' W 122°21'0 0.0
2018-Jul-13 00:28N 47°34' W 122°21'0 0.0
2018-Jul-12 23:58N 47°34' W 122°21'0 0.0
2018-Jul-12 23:28N 47°34' W 122°21'0 0.0
2018-Jul-12 22:58N 47°34' W 122°21'0 0.0
2018-Jul-12 22:28N 47°34' W 122°21'0 0.0
2018-Jul-12 21:58N 47°34' W 122°21'0 0.0
2018-Jul-12 21:28N 47°34' W 122°21'0 0.0
2018-Jul-12 20:58N 47°34' W 122°21'0 0.0
2018-Jul-12 20:28N 47°34' W 122°21'0 0.0
2018-Jul-12 19:58N 47°34' W 122°21'0 0.0
2018-Jul-12 19:28N 47°34' W 122°21'0 0.0
2018-Jul-12 18:58N 47°34' W 122°21'0 0.2
2018-Jul-12 18:28N 47°34' W 122°21'  
Track history (hours):
 
Tides and Currents Weather Stations Pressure Air Temp Water Temp Dewpoint Dewpoint Depression Visibility Wind Speed Wind Dir Waves Ship Positions

Min Zidell

Owner: Harley Marine Services, Inc., seattle, WA. More information available from US FCC via Universal Licensing System and Coast Guard Vessel Documentation Center.

Last reported at 2018-Jul-22 18:00 UTC. Time now 2018-Jul-22 17:58 UTC.
Position N 46°19' W 124°41'.

Length 38 m; draft 4.2 m.

Type: Other ship. MMSI: 367770990.

Date/timePositionNaut miles runAvg speedWind from/ knotsBaromVisibWave heightAir tempDewpointWater temp
2018-Jul-22 18:00N 46°19' W 124°41'4 8.5
2018-Jul-22 17:31N 46°22' W 124°46'4 8.4
2018-Jul-22 17:01N 46°25' W 124°50'4 8.9
2018-Jul-22 16:30N 46°29' W 124°53'4 8.8
2018-Jul-22 16:01N 46°33' W 124°55'9 9.0
2018-Jul-22 15:00N 46°42' W 124°58'4 9.1
2018-Jul-22 14:30N 46°46' W 124°60'4 8.9
2018-Jul-22 14:00N 46°51' W 125°01'4 8.8
2018-Jul-22 13:30N 46°55' W 125°02'4 8.9
2018-Jul-22 13:00N 46°59' W 125°03'4 8.9
2018-Jul-22 12:31N 47°04' W 125°04'6 8.8
2018-Jul-22 11:46N 47°10' W 125°06'2 8.3
2018-Jul-22 11:30N 47°12' W 125°06'4 8.4
2018-Jul-22 11:01N 47°16' W 125°07'4 8.7
2018-Jul-22 10:31N 47°21' W 125°09'7 8.9
2018-Jul-22 09:46N 47°27' W 125°10'4 9.2
2018-Jul-22 09:22N 47°31' W 125°11'13 9.1
2018-Jul-22 07:53N 47°44' W 125°15'6 8.9
2018-Jul-22 07:13N 47°50' W 125°16'4 8.6
2018-Jul-22 06:46N 47°54' W 125°16'2 8.5
2018-Jul-22 06:30N 47°56' W 125°15'4 8.5
2018-Jul-22 06:00N 47°60' W 125°13'11 8.2
2018-Jul-22 04:41N 48°10' W 125°07'6 8.2
2018-Jul-22 03:57N 48°16' W 125°04'4 8.1
2018-Jul-22 03:28N 48°19' W 125°01'4 8.0
2018-Jul-22 03:00N 48°22' W 124°58'5 7.7
2018-Jul-22 02:22N 48°26' W 124°54'3 7.2
2018-Jul-22 02:00N 48°27' W 124°50'4 8.0
2018-Jul-22 01:31N 48°27' W 124°44'4 8.7
2018-Jul-22 01:01N 48°25' W 124°38'4 9.0
2018-Jul-22 00:31N 48°23' W 124°32'4 9.0
2018-Jul-22 00:01N 48°21' W 124°26'5 9.3
2018-Jul-21 23:31N 48°19' W 124°20'29 8.3
2018-Jul-21 20:00N 48°12' W 123°37'29 7.8
2018-Jul-21 16:16N 48°21' W 122°56'2 9.0
2018-Jul-21 16:01N 48°23' W 122°53'5 9.7
2018-Jul-21 15:30N 48°25' W 122°47'510.0
2018-Jul-21 15:00N 48°30' W 122°45'510.9
2018-Jul-21 14:30N 48°35' W 122°46'510.3
2018-Jul-21 14:01N 48°40' W 122°44'510.3
2018-Jul-21 13:30N 48°46' W 122°45'0 0.0
2018-Jul-20 18:14N 48°45' W 122°45'310.7
2018-Jul-20 17:59N 48°43' W 122°44'5 9.5
2018-Jul-20 17:30N 48°38' W 122°44'510.6
2018-Jul-20 17:00N 48°33' W 122°45'5 9.4
2018-Jul-20 16:30N 48°28' W 122°45'4 7.9
2018-Jul-20 16:00N 48°25' W 122°47'4 7.3
2018-Jul-20 15:29N 48°22' W 122°52'42 7.7
2018-Jul-20 10:01N 48°13' W 123°54'0 8.0
2018-Jul-20 09:58N 48°13' W 123°54'3 7.5
2018-Jul-20 09:30N 48°14' W 123°59'4 7.6
2018-Jul-20 09:00N 48°15' W 124°05'4 7.7
2018-Jul-20 08:30N 48°17' W 124°10'4 8.1
2018-Jul-20 08:00N 48°19' W 124°15'4 8.2
2018-Jul-20 07:27N 48°21' W 124°21'4 8.3
2018-Jul-20 06:59N 48°22' W 124°26'4 8.4
2018-Jul-20 06:30N 48°24' W 124°32'4 8.3
2018-Jul-20 06:00N 48°26' W 124°38'4 8.6
2018-Jul-20 05:30N 48°27' W 124°44'5 9.4
2018-Jul-20 05:00N 48°27' W 124°51'87 7.4
2018-Jul-19 17:10N 46°60' W 124°50'2 7.1
2018-Jul-19 16:52N 46°58' W 124°49'3 7.2
2018-Jul-19 16:30N 46°55' W 124°48'3 7.1
2018-Jul-19 16:01N 46°52' W 124°46'5 7.5
2018-Jul-19 15:24N 46°47' W 124°44'4 7.6
2018-Jul-19 14:55N 46°44' W 124°43'7 7.5
2018-Jul-19 14:01N 46°37' W 124°41'4 7.3
2018-Jul-19 13:27N 46°34' W 124°38'3 7.5
2018-Jul-19 13:00N 46°31' W 124°36'4 7.6
2018-Jul-19 12:31N 46°27' W 124°35'4 7.7
2018-Jul-19 12:00N 46°24' W 124°32'4 7.4
2018-Jul-19 11:31N 46°21' W 124°28'4 7.4
2018-Jul-19 11:00N 46°18' W 124°25'4 7.9
2018-Jul-19 10:30N 46°15' W 124°21'5 8.6
2018-Jul-19 09:55N 46°13' W 124°14'3 8.5
2018-Jul-19 09:30N 46°13' W 124°09'5 9.4
2018-Jul-19 09:00N 46°15' W 124°04'611.0
2018-Jul-19 08:31N 46°13' W 123°57'611.4
2018-Jul-19 08:01N 46°12' W 123°49'612.0
2018-Jul-19 07:31N 46°15' W 123°41'611.9
2018-Jul-19 06:59N 46°16' W 123°32'510.0
2018-Jul-19 06:31N 46°14' W 123°26'510.5
2018-Jul-19 06:01N 46°09' W 123°23'611.1
2018-Jul-19 05:30N 46°10' W 123°15'510.3
2018-Jul-19 05:00N 46°11' W 123°08'510.3
2018-Jul-19 04:30N 46°09' W 123°02'5 9.6
2018-Jul-19 04:01N 46°06' W 122°56'5 9.1
2018-Jul-19 03:30N 46°02' W 122°53'510.0
2018-Jul-19 03:01N 45°58' W 122°49'510.4
2018-Jul-19 02:29N 45°52' W 122°47'510.8
2018-Jul-19 02:01N 45°47' W 122°46'611.0
2018-Jul-19 01:31N 45°42' W 122°46'5 9.3
2018-Jul-19 01:01N 45°37' W 122°47'4 7.3
2018-Jul-19 00:30N 45°34' W 122°44'0 0.3
2018-Jul-19 00:00N 45°34' W 122°44'0 0.0
2018-Jul-18 23:30N 45°34' W 122°44'0 0.0
2018-Jul-18 23:00N 45°34' W 122°44'0 0.0
2018-Jul-18 22:30N 45°34' W 122°44'0 0.0
2018-Jul-18 22:01N 45°34' W 122°44'1 2.0
2018-Jul-18 21:22N 45°35' W 122°46'0 0.0
2018-Jul-18 20:58N 45°35' W 122°46'0 0.0
2018-Jul-18 20:25N 45°35' W 122°46'0 0.0
2018-Jul-18 19:58N 45°35' W 122°46'0 0.0
2018-Jul-18 19:28N 45°35' W 122°46'0 0.0
2018-Jul-18 18:59N 45°35' W 122°46'0 0.0
2018-Jul-18 18:21N 45°35' W 122°46'0 0.0
2018-Jul-18 18:00N 45°35' W 122°46'0 0.0
2018-Jul-18 17:30N 45°35' W 122°46'0 0.0
2018-Jul-18 17:01N 45°35' W 122°46'1 2.5
2018-Jul-18 16:30N 45°34' W 122°44'0 0.0
2018-Jul-18 15:51N 45°34' W 122°44'0 0.0
2018-Jul-18 15:27N 45°34' W 122°44'0 0.0
2018-Jul-18 14:57N 45°34' W 122°44'0 0.0
2018-Jul-18 14:30N 45°34' W 122°44'0 0.0
2018-Jul-18 13:30N 45°34' W 122°44'0 0.0
2018-Jul-18 12:54N 45°34' W 122°44'0 0.0
2018-Jul-18 12:15N 45°34' W 122°44'0 0.0
2018-Jul-18 11:57N 45°34' W 122°44'0 0.0
2018-Jul-18 11:27N 45°34' W 122°44'0 0.0
2018-Jul-18 10:27N 45°34' W 122°44'0 0.0
2018-Jul-18 10:00N 45°34' W 122°44'0 0.0
2018-Jul-18 09:27N 45°34' W 122°44'0 0.0
2018-Jul-18 08:54N 45°34' W 122°44'0 0.0
2018-Jul-18 08:30N 45°34' W 122°44'0 0.0
2018-Jul-18 07:48N 45°34' W 122°44'0 0.0
2018-Jul-18 07:27N 45°34' W 122°44'0 0.0
2018-Jul-18 06:59N 45°34' W 122°44'1 1.4
2018-Jul-18 06:31N 45°35' W 122°45'3 6.2
2018-Jul-18 06:00N 45°37' W 122°47'3 6.7
2018-Jul-18 05:31N 45°40' W 122°46'6 8.0
2018-Jul-18 04:48N 45°46' W 122°46'2 8.2
2018-Jul-18 04:31N 45°48' W 122°47'5 8.2
2018-Jul-18 03:54N 45°53' W 122°48'3 8.6
2018-Jul-18 03:31N 45°56' W 122°48'4 8.7
2018-Jul-18 03:00N 46°00' W 122°51'4 8.6
2018-Jul-18 02:31N 46°04' W 122°53'4 8.6
2018-Jul-18 02:01N 46°07' W 122°59'4 8.6
2018-Jul-18 01:31N 46°09' W 123°03'7 7.9
2018-Jul-18 00:40N 46°10' W 123°13'1 8.6
2018-Jul-18 00:30N 46°10' W 123°15'4 8.4
2018-Jul-18 00:00N 46°09' W 123°21'4 8.1
2018-Jul-17 23:30N 46°11' W 123°26'4 8.0
2018-Jul-17 23:00N 46°15' W 123°26'4 7.5
2018-Jul-17 22:30N 46°16' W 123°31'5 8.9
2018-Jul-17 22:00N 46°15' W 123°38'4 8.7
2018-Jul-17 21:30N 46°14' W 123°44'5 9.2
2018-Jul-17 21:00N 46°12' W 123°50'4 8.6
2018-Jul-17 20:31N 46°12' W 123°56'4 8.8
2018-Jul-17 20:00N 46°15' W 124°00'4 7.2
2018-Jul-17 19:30N 46°15' W 124°06'3 7.0
2018-Jul-17 19:01N 46°13' W 124°10'3 6.5
2018-Jul-17 18:31N 46°12' W 124°14'2 4.8
2018-Jul-17 18:01N 46°13' W 124°18'3 5.9
2018-Jul-17 17:30N 46°14' W 124°21'3 6.5
2018-Jul-17 17:00N 46°15' W 124°26'5 6.5
2018-Jul-17 16:16N 46°17' W 124°32'2 6.1
2018-Jul-17 16:01N 46°18' W 124°35'3 5.6
2018-Jul-17 15:30N 46°18' W 124°38'3 5.8
2018-Jul-17 15:00N 46°20' W 124°42'3 5.9
2018-Jul-17 14:31N 46°21' W 124°46'3 6.8
2018-Jul-17 14:00N 46°22' W 124°51'3 5.8
2018-Jul-17 13:31N 46°24' W 124°54'3 6.6
2018-Jul-17 13:00N 46°27' W 124°54'3 6.7
2018-Jul-17 12:31N 46°31' W 124°55'4 6.4
2018-Jul-17 11:50N 46°35' W 124°57'3 6.3
2018-Jul-17 11:23N 46°38' W 124°58'2 6.5
2018-Jul-17 11:00N 46°40' W 124°58'5 6.5
2018-Jul-17 10:16N 46°45' W 124°59'2 6.6
2018-Jul-17 10:01N 46°46' W 124°60'3 6.6
2018-Jul-17 09:30N 46°50' W 125°01'3 6.4
2018-Jul-17 09:00N 46°53' W 125°01'3 6.4
2018-Jul-17 08:31N 46°56' W 125°02'3 6.5
2018-Jul-17 08:00N 46°59' W 125°03'3 6.9
2018-Jul-17 07:30N 47°03' W 125°04'3 6.6
2018-Jul-17 06:59N 47°06' W 125°05'3 6.4
2018-Jul-17 06:30N 47°09' W 125°06'3 6.2
2018-Jul-17 06:00N 47°12' W 125°07'3 6.1
2018-Jul-17 05:26N 47°15' W 125°08'3 6.3
2018-Jul-17 04:59N 47°18' W 125°09'3 6.2
2018-Jul-17 04:30N 47°21' W 125°10'3 5.8
2018-Jul-17 04:00N 47°24' W 125°10'3 5.9
2018-Jul-17 03:30N 47°27' W 125°11'27 6.2
2018-Jul-16 23:13N 47°53' W 125°16'16 7.1
2018-Jul-16 20:56N 48°09' W 125°07'3 6.7
2018-Jul-16 20:26N 48°12' W 125°05'3 6.7
2018-Jul-16 20:00N 48°14' W 125°03'4 7.0
2018-Jul-16 19:30N 48°18' W 125°02'4 7.5
2018-Jul-16 18:58N 48°21' W 124°60'3 7.3
2018-Jul-16 18:30N 48°25' W 124°58'4 7.8
2018-Jul-16 17:59N 48°27' W 124°53'4 8.6
2018-Jul-16 17:30N 48°27' W 124°47'5 9.1
2018-Jul-16 17:00N 48°26' W 124°40'5 9.1
2018-Jul-16 16:30N 48°24' W 124°34'4 8.9
2018-Jul-16 16:00N 48°22' W 124°28'4 8.8
2018-Jul-16 15:30N 48°20' W 124°22'5 8.6
2018-Jul-16 14:58N 48°18' W 124°15'4 8.1
2018-Jul-16 14:29N 48°16' W 124°10'42 7.1
2018-Jul-16 08:35N 48°17' W 123°07'2 8.8
2018-Jul-16 08:23N 48°18' W 123°05'4 8.4
2018-Jul-16 07:55N 48°20' W 123°00'5 8.1
2018-Jul-16 07:20N 48°22' W 122°54'4 9.8
2018-Jul-16 06:58N 48°24' W 122°49'4 9.0
2018-Jul-16 06:30N 48°27' W 122°45'5 9.1
2018-Jul-16 06:00N 48°32' W 122°45'5 9.3
2018-Jul-16 05:30N 48°37' W 122°45'4 8.3
2018-Jul-16 05:00N 48°41' W 122°43'4 7.1
2018-Jul-16 04:28N 48°44' W 122°46'5 0.2
2018-Jul-14 20:41N 48°49' W 122°43'2 7.0
2018-Jul-14 20:28N 48°48' W 122°44'4 8.1
2018-Jul-14 19:55N 48°43' W 122°44'3 7.9
2018-Jul-14 19:30N 48°40' W 122°42'3 6.8
2018-Jul-14 19:00N 48°37' W 122°44'3 5.8
2018-Jul-14 18:30N 48°34' W 122°45'4 7.4
2018-Jul-14 18:00N 48°30' W 122°44'3 5.6
2018-Jul-14 17:30N 48°28' W 122°44'3 6.1
2018-Jul-14 17:00N 48°24' W 122°44'3 6.6
2018-Jul-14 16:30N 48°21' W 122°45'18 9.9
2018-Jul-14 14:41N 48°04' W 122°38'312.6
2018-Jul-14 14:26N 48°01' W 122°37'1111.3
2018-Jul-14 13:30N 47°52' W 122°28'611.1
2018-Jul-14 13:00N 47°47' W 122°26'510.1
2018-Jul-14 12:30N 47°42' W 122°27'4 8.8
2018-Jul-14 12:00N 47°38' W 122°25'4 7.7
2018-Jul-14 11:30N 47°35' W 122°21'0 0.9
2018-Jul-14 11:01N 47°34' W 122°21'0 0.0
2018-Jul-14 10:30N 47°34' W 122°21'0 0.0
2018-Jul-14 09:58N 47°34' W 122°21'0 0.0
2018-Jul-14 09:28N 47°34' W 122°21'0 0.0
2018-Jul-14 08:58N 47°34' W 122°21'0 0.0
2018-Jul-14 08:28N 47°34' W 122°21'0 0.0
2018-Jul-14 07:58N 47°34' W 122°21'0 0.0
2018-Jul-14 07:28N 47°34' W 122°21'0 0.0
2018-Jul-14 06:55N 47°34' W 122°21'0 0.0
2018-Jul-14 06:28N 47°34' W 122°21'0 0.0
2018-Jul-14 05:58N 47°34' W 122°21'0 0.0
2018-Jul-14 05:28N 47°34' W 122°21'0 0.0
2018-Jul-14 04:58N 47°34' W 122°21'0 0.0
2018-Jul-14 04:28N 47°34' W 122°21'0 0.0
2018-Jul-14 03:58N 47°34' W 122°21'0 0.0
2018-Jul-14 03:28N 47°34' W 122°21'0 0.0
2018-Jul-14 02:58N 47°34' W 122°21'0 0.0
2018-Jul-14 02:28N 47°34' W 122°21'0 0.0
2018-Jul-14 01:58N 47°34' W 122°21'0 0.0
2018-Jul-14 01:28N 47°34' W 122°21'0 0.0
2018-Jul-14 00:58N 47°34' W 122°21'0 0.0
2018-Jul-14 00:28N 47°34' W 122°21'0 0.0
2018-Jul-13 23:58N 47°34' W 122°21'0 0.0
2018-Jul-13 23:28N 47°34' W 122°21'0 0.0
2018-Jul-13 22:58N 47°34' W 122°21'0 0.0
2018-Jul-13 22:25N 47°34' W 122°21'0 0.0
2018-Jul-13 21:58N 47°34' W 122°21'0 0.0
2018-Jul-13 20:16N 47°34' W 122°21'0 0.0
2018-Jul-13 19:55N 47°34' W 122°21'0 0.0
2018-Jul-13 19:25N 47°34' W 122°21'0 0.0
2018-Jul-13 18:58N 47°34' W 122°21'0 0.0
2018-Jul-13 18:28N 47°34' W 122°21'0 0.0
2018-Jul-13 17:58N 47°34' W 122°21'0 0.0
2018-Jul-13 17:25N 47°34' W 122°21'0 0.0
2018-Jul-13 16:58N 47°34' W 122°21'0 0.0
2018-Jul-13 16:28N 47°34' W 122°21'0 0.0
2018-Jul-13 15:58N 47°34' W 122°21'0 0.0
2018-Jul-13 15:28N 47°34' W 122°21'0 0.0
2018-Jul-13 14:58N 47°34' W 122°21'0 0.0
2018-Jul-13 14:28N 47°34' W 122°21'0 0.0
2018-Jul-13 13:28N 47°34' W 122°21'0 0.0
2018-Jul-13 12:58N 47°34' W 122°21'0 0.0
2018-Jul-13 12:28N 47°34' W 122°21'0 0.0
2018-Jul-13 11:58N 47°34' W 122°21'0 0.0
2018-Jul-13 11:28N 47°34' W 122°21'0 0.0
2018-Jul-13 10:55N 47°34' W 122°21'0 0.0
2018-Jul-13 10:28N 47°34' W 122°21'0 0.0
2018-Jul-13 09:58N 47°34' W 122°21'0 0.0
2018-Jul-13 09:28N 47°34' W 122°21'0 0.0
2018-Jul-13 08:58N 47°34' W 122°21'0 0.0
2018-Jul-13 08:28N 47°34' W 122°21'0 0.0
2018-Jul-13 07:58N 47°34' W 122°21'0 0.0
2018-Jul-13 07:28N 47°34' W 122°21'0 0.0
2018-Jul-13 06:58N 47°34' W 122°21'0 0.0
2018-Jul-13 06:28N 47°34' W 122°21'0 0.0
2018-Jul-13 05:58N 47°34' W 122°21'0 0.0
2018-Jul-13 05:28N 47°34' W 122°21'0 0.0
2018-Jul-13 04:58N 47°34' W 122°21'0 0.0
2018-Jul-13 04:28N 47°34' W 122°21'0 0.0
2018-Jul-13 03:58N 47°34' W 122°21'0 0.0
2018-Jul-13 03:28N 47°34' W 122°21'0 0.0
2018-Jul-13 02:58N 47°34' W 122°21'0 0.0
2018-Jul-13 02:28N 47°34' W 122°21'0 0.0
2018-Jul-13 01:55N 47°34' W 122°21'0 0.0
2018-Jul-13 01:28N 47°34' W 122°21'0 0.0
2018-Jul-13 00:58N 47°34' W 122°21'0 0.0
2018-Jul-13 00:28N 47°34' W 122°21'0 0.0
2018-Jul-12 23:58N 47°34' W 122°21'0 0.0
2018-Jul-12 23:28N 47°34' W 122°21'0 0.0
2018-Jul-12 22:58N 47°34' W 122°21'0 0.0
2018-Jul-12 22:28N 47°34' W 122°21'0 0.0
2018-Jul-12 21:58N 47°34' W 122°21'0 0.0
2018-Jul-12 21:28N 47°34' W 122°21'0 0.0
2018-Jul-12 20:58N 47°34' W 122°21'0 0.0
2018-Jul-12 20:28N 47°34' W 122°21'0 0.0
2018-Jul-12 19:58N 47°34' W 122°21'0 0.0
2018-Jul-12 19:28N 47°34' W 122°21'0 0.0
2018-Jul-12 18:58N 47°34' W 122°21'0 0.2
2018-Jul-12 18:28N 47°34' W 122°21'  

Dump ship's entire track history